createdAt,value
2023-03-28T00:01:03.435Z,4.90
2023-03-28T00:03:35.559Z,4.90
2023-03-28T00:06:05.584Z,5.60
2023-03-28T00:08:32.685Z,4.60
2023-03-28T00:11:08.881Z,4.70
2023-03-28T00:13:37.104Z,4.57
2023-03-28T00:16:10.173Z,5.67
2023-03-28T00:18:39.100Z,4.70
2023-03-28T00:21:08.029Z,4.90
2023-03-28T00:23:35.873Z,4.57
2023-03-28T00:26:07.807Z,4.97
2023-03-28T00:28:35.196Z,4.73
2023-03-28T00:31:06.557Z,4.97
2023-03-28T00:33:33.384Z,4.50
2023-03-28T00:36:00.686Z,4.80
2023-03-28T00:38:27.623Z,5.13
2023-03-28T00:40:57.688Z,4.53
2023-03-28T00:43:45.965Z,5.10
2023-03-28T00:46:34.226Z,5.27
2023-03-28T00:49:13.875Z,6.27
2023-03-28T00:51:48.413Z,4.60
2023-03-28T00:54:18.698Z,4.30
2023-03-28T00:56:48.770Z,4.33
2023-03-28T00:59:19.252Z,4.30
2023-03-28T01:01:46.598Z,4.97
2023-03-28T01:04:20.454Z,4.63
2023-03-28T01:06:54.539Z,4.90
2023-03-28T01:09:24.087Z,4.37
2023-03-28T01:11:52.080Z,4.50
2023-03-28T01:14:22.871Z,4.50
2023-03-28T01:16:51.249Z,4.70
2023-03-28T01:19:28.397Z,4.70
2023-03-28T01:22:34.614Z,4.83
2023-03-28T01:25:24.670Z,4.60
2023-03-28T01:28:09.159Z,4.57
2023-03-28T01:31:01.410Z,4.00
2023-03-28T01:33:49.644Z,4.40
2023-03-28T01:36:53.249Z,4.33
2023-03-28T01:39:38.932Z,4.30
2023-03-28T01:42:24.776Z,4.20
2023-03-28T01:45:06.506Z,4.27
2023-03-28T01:47:43.302Z,4.20
2023-03-28T01:50:29.722Z,4.57
2023-03-28T01:53:33.983Z,4.07
2023-03-28T01:56:12.614Z,4.70
2023-03-28T01:58:58.007Z,4.97
2023-03-28T02:01:36.766Z,4.97
2023-03-28T02:04:20.790Z,4.40
2023-03-28T02:06:50.291Z,4.40
2023-03-28T02:09:22.864Z,4.40
2023-03-28T02:11:56.827Z,4.03
2023-03-28T02:14:28.656Z,4.53
2023-03-28T02:17:01.897Z,5.20
2023-03-28T02:19:31.086Z,4.80
2023-03-28T02:22:15.354Z,4.77
2023-03-28T02:24:42.475Z,4.33
2023-03-28T02:27:09.219Z,4.40
2023-03-28T02:29:39.364Z,4.00
2023-03-28T02:32:06.678Z,4.27
2023-03-28T02:34:33.452Z,3.97
2023-03-28T02:37:23.127Z,4.13
2023-03-28T02:40:01.759Z,4.00
2023-03-28T02:42:49.436Z,3.80
2023-03-28T02:45:30.191Z,3.80
2023-03-28T02:48:24.733Z,3.97
2023-03-28T02:51:14.363Z,4.00
2023-03-28T02:54:09.624Z,4.23
2023-03-28T02:56:51.236Z,4.43
2023-03-28T02:59:29.226Z,3.50
2023-03-28T03:01:56.479Z,4.13
2023-03-28T03:04:23.260Z,4.07
2023-03-28T03:06:50.919Z,4.40
2023-03-28T03:09:18.484Z,4.07
2023-03-28T03:11:45.158Z,4.23
2023-03-28T03:14:12.492Z,3.87
2023-03-28T03:16:39.163Z,4.53
2023-03-28T03:19:05.875Z,4.30
2023-03-28T03:21:32.515Z,4.30
2023-03-28T03:23:59.529Z,4.30
2023-03-28T03:26:26.610Z,4.13
2023-03-28T03:28:53.254Z,4.23
2023-03-28T03:31:20.026Z,3.80
2023-03-28T03:33:46.879Z,4.57
2023-03-28T03:36:13.766Z,4.67
2023-03-28T03:38:40.538Z,3.57
2023-03-28T03:41:07.323Z,4.50
2023-03-28T03:43:34.408Z,4.10
2023-03-28T03:46:02.648Z,4.97
2023-03-28T03:48:29.998Z,4.53
2023-03-28T03:50:56.787Z,4.33
2023-03-28T03:53:23.656Z,4.83
2023-03-28T03:55:50.392Z,3.97
2023-03-28T03:58:18.749Z,4.80
2023-03-28T04:00:49.083Z,5.13
2023-03-28T04:03:24.417Z,4.47
2023-03-28T04:05:52.882Z,4.30
2023-03-28T04:08:19.519Z,4.40
2023-03-28T04:10:47.385Z,3.87
2023-03-28T04:13:14.130Z,3.63
2023-03-28T04:15:40.948Z,5.50
2023-03-28T04:18:09.709Z,5.53
2023-03-28T04:20:37.221Z,5.20
2023-03-28T04:23:05.919Z,5.53
2023-03-28T04:25:33.049Z,5.83
2023-03-28T04:28:01.945Z,6.23
2023-03-28T04:30:28.792Z,5.93
2023-03-28T04:32:55.590Z,4.90
2023-03-28T04:35:23.651Z,4.90
2023-03-28T04:37:50.373Z,6.23
2023-03-28T04:40:17.705Z,5.53
2023-03-28T04:42:44.672Z,6.43
2023-03-28T04:45:11.550Z,7.13
2023-03-28T04:47:40.208Z,7.20
2023-03-28T04:50:11.122Z,7.40
2023-03-28T04:52:37.962Z,7.27
2023-03-28T04:55:05.731Z,8.67
2023-03-28T04:57:32.768Z,7.90
2023-03-28T04:59:59.870Z,8.53
2023-03-28T05:02:26.582Z,9.70
2023-03-28T05:04:53.494Z,9.73
2023-03-28T05:07:20.242Z,8.80
2023-03-28T05:09:47.053Z,8.20
2023-03-28T05:12:14.888Z,7.53
2023-03-28T05:14:41.924Z,7.33
2023-03-28T05:17:08.693Z,6.90
2023-03-28T05:19:35.385Z,6.77
2023-03-28T05:22:02.080Z,5.70
2023-03-28T05:24:28.752Z,6.43
2023-03-28T05:26:55.679Z,5.10
2023-03-28T05:29:22.411Z,5.77
2023-03-28T05:31:49.074Z,6.97
2023-03-28T05:34:15.776Z,6.40
2023-03-28T05:36:42.858Z,6.43
2023-03-28T05:39:09.684Z,6.47
2023-03-28T05:41:36.411Z,5.70
2023-03-28T05:44:04.540Z,6.93
2023-03-28T05:46:31.190Z,5.73
2023-03-28T05:48:58.179Z,6.23
2023-03-28T05:51:24.839Z,5.60
2023-03-28T05:53:51.657Z,5.60
2023-03-28T05:56:18.378Z,6.27
2023-03-28T05:58:45.402Z,5.97
2023-03-28T06:01:12.886Z,5.73
2023-03-28T06:03:40.288Z,6.07
2023-03-28T06:06:08.546Z,6.53
2023-03-28T06:08:35.526Z,6.13
2023-03-28T06:11:03.250Z,5.80
2023-03-28T06:13:30.684Z,6.60
2023-03-28T06:15:57.768Z,7.20
2023-03-28T06:18:24.598Z,6.83
2023-03-28T06:20:51.299Z,6.83
2023-03-28T06:23:18.060Z,8.10
2023-03-28T06:25:44.950Z,7.43
2023-03-28T06:28:11.809Z,7.97
2023-03-28T06:30:40.034Z,8.37
2023-03-28T06:33:07.423Z,7.97
2023-03-28T06:35:34.523Z,8.03
2023-03-28T06:38:01.692Z,8.97
2023-03-28T06:40:28.434Z,11.17
2023-03-28T06:42:55.495Z,11.20
2023-03-28T06:45:22.250Z,12.00
2023-03-28T06:47:52.863Z,11.43
2023-03-28T06:50:19.789Z,11.03
2023-03-28T06:52:46.515Z,11.27
2023-03-28T06:55:13.213Z,11.40
2023-03-28T06:57:39.914Z,11.43
2023-03-28T07:00:08.651Z,10.53
2023-03-28T07:02:35.467Z,12.00
2023-03-28T07:05:02.199Z,11.33
2023-03-28T07:07:29.271Z,11.63
2023-03-28T07:09:56.114Z,12.30
2023-03-28T07:12:23.171Z,18.57
2023-03-28T07:14:49.823Z,11.13
2023-03-28T07:17:16.598Z,10.87
2023-03-28T07:19:45.288Z,10.70
2023-03-28T07:22:11.991Z,12.07
2023-03-28T07:24:38.702Z,10.90
2023-03-28T07:29:35.835Z,11.43
2023-03-28T07:32:03.120Z,12.47
2023-03-28T07:34:29.938Z,12.53
2023-03-28T07:36:57.123Z,11.83
2023-03-28T07:39:23.786Z,13.00
2023-03-28T07:41:50.426Z,12.47
2023-03-28T07:44:17.210Z,12.53
2023-03-28T07:46:43.999Z,12.30
2023-03-28T07:49:10.839Z,11.63
2023-03-28T07:51:37.907Z,12.40
2023-03-28T07:54:05.106Z,12.10
2023-03-28T07:56:31.746Z,12.63
2023-03-28T07:58:58.732Z,12.13
2023-03-28T08:01:26.322Z,12.67
2023-03-28T08:03:53.276Z,11.83
2023-03-28T08:06:31.763Z,12.80
2023-03-28T08:08:59.496Z,13.47
2023-03-28T08:11:27.203Z,12.27
2023-03-28T08:13:53.989Z,12.53
2023-03-28T08:16:20.698Z,13.20
2023-03-28T08:18:54.383Z,12.73
2023-03-28T08:21:30.991Z,13.50
2023-03-28T08:24:01.780Z,13.73
2023-03-28T08:26:28.878Z,12.40
2023-03-28T08:28:58.984Z,12.23
2023-03-28T08:31:28.365Z,12.40
2023-03-28T08:33:55.687Z,12.70
2023-03-28T08:36:24.372Z,13.10
2023-03-28T08:38:51.619Z,13.27
2023-03-28T08:41:50.272Z,11.80
2023-03-28T08:44:47.249Z,12.70
2023-03-28T08:47:40.769Z,12.00
2023-03-28T08:50:19.243Z,12.37
2023-03-28T08:52:47.594Z,12.83
2023-03-28T08:55:32.450Z,13.27
2023-03-28T08:58:00.806Z,12.73
2023-03-28T09:00:31.961Z,12.93
2023-03-28T09:02:59.624Z,12.47
2023-03-28T09:06:02.358Z,11.50
2023-03-28T09:09:00.289Z,11.97
2023-03-28T09:11:35.868Z,12.00
2023-03-28T09:14:14.645Z,12.30
2023-03-28T09:16:48.556Z,11.70
2023-03-28T09:19:36.871Z,11.70
2023-03-28T09:22:27.113Z,12.37
2023-03-28T09:25:18.921Z,12.37
2023-03-28T09:27:52.189Z,13.30
2023-03-28T09:30:22.845Z,13.10
2023-03-28T09:32:49.947Z,12.10
2023-03-28T09:35:19.411Z,12.30
2023-03-28T09:37:50.379Z,11.90
2023-03-28T09:40:32.024Z,11.90
2023-03-28T09:43:12.038Z,12.17
2023-03-28T09:46:00.246Z,12.60
2023-03-28T09:48:32.683Z,12.20
2023-03-28T09:51:00.734Z,11.90
2023-03-28T09:53:33.520Z,12.40
2023-03-28T09:56:07.710Z,12.00
2023-03-28T09:58:49.071Z,12.30
2023-03-28T10:01:33.999Z,12.00
2023-03-28T10:04:01.619Z,11.13
2023-03-28T10:06:31.450Z,12.30
2023-03-28T10:09:16.352Z,11.80
2023-03-28T10:12:08.537Z,11.57
2023-03-28T10:14:40.684Z,11.90
2023-03-28T10:17:27.824Z,11.93
2023-03-28T10:20:01.504Z,11.63
2023-03-28T10:22:34.688Z,11.90
2023-03-28T10:25:05.013Z,11.77
2023-03-28T10:27:34.977Z,12.63
2023-03-28T10:30:13.843Z,11.07
2023-03-28T10:32:41.376Z,12.40
2023-03-28T10:35:28.010Z,12.50
2023-03-28T10:37:55.538Z,12.27
2023-03-28T10:40:24.400Z,12.63
2023-03-28T10:42:51.562Z,12.60
2023-03-28T10:45:34.690Z,11.73
2023-03-28T10:48:06.273Z,11.90
2023-03-28T10:50:47.796Z,12.67
2023-03-28T10:53:37.155Z,11.70
2023-03-28T10:56:42.243Z,12.23
2023-03-28T10:59:20.498Z,12.00
2023-03-28T11:02:18.545Z,12.40
2023-03-28T11:05:00.955Z,12.00
2023-03-28T11:07:40.537Z,11.70
2023-03-28T11:10:07.171Z,11.90
2023-03-28T11:12:59.607Z,11.60
2023-03-28T11:16:08.367Z,12.43
2023-03-28T11:19:14.865Z,12.10
2023-03-28T11:21:54.049Z,11.87
2023-03-28T11:24:53.660Z,11.80
2023-03-28T11:27:42.125Z,12.10
2023-03-28T11:30:17.984Z,11.57
2023-03-28T11:32:50.529Z,11.67
2023-03-28T11:35:37.533Z,12.20
2023-03-28T11:38:12.598Z,11.67
2023-03-28T11:40:59.168Z,12.70
2023-03-28T11:43:35.536Z,12.37
2023-03-28T11:46:27.113Z,12.10
2023-03-28T11:49:08.760Z,12.10
2023-03-28T11:52:16.786Z,12.33
2023-03-28T11:54:50.077Z,11.70
2023-03-28T11:57:46.759Z,11.70
2023-03-28T12:00:33.854Z,11.70
2023-03-28T12:03:25.619Z,11.63
2023-03-28T12:06:07.250Z,12.00
2023-03-28T12:08:47.427Z,11.80
2023-03-28T12:11:42.339Z,12.50
2023-03-28T12:14:32.300Z,11.53
2023-03-28T12:17:03.922Z,12.00
2023-03-28T12:19:41.116Z,11.20
2023-03-28T12:22:41.372Z,11.40
2023-03-28T12:25:24.726Z,11.83
2023-03-28T12:28:05.377Z,11.80
2023-03-28T12:30:43.022Z,12.80
2023-03-28T12:33:20.151Z,11.63
2023-03-28T12:36:35.999Z,12.20
2023-03-28T12:39:34.846Z,11.70
2023-03-28T12:42:07.857Z,12.23
2023-03-28T12:45:03.596Z,12.07
2023-03-28T12:47:36.520Z,11.80
2023-03-28T12:50:15.793Z,12.23
2023-03-28T12:52:45.434Z,12.30
2023-03-28T12:55:24.257Z,11.67
2023-03-28T12:57:52.456Z,12.20
2023-03-28T13:01:13.226Z,12.20
2023-03-28T13:03:45.542Z,12.20
2023-03-28T13:06:30.602Z,12.20
2023-03-28T13:09:26.305Z,11.90
2023-03-28T13:12:25.756Z,11.30
2023-03-28T13:15:00.474Z,11.10
2023-03-28T13:17:30.720Z,11.40
2023-03-28T13:20:15.632Z,11.17
2023-03-28T13:23:02.512Z,11.10
2023-03-28T13:25:33.237Z,11.37
2023-03-28T13:28:30.343Z,11.90
2023-03-28T13:31:13.074Z,11.27
2023-03-28T13:34:03.635Z,11.80
2023-03-28T13:36:33.019Z,12.10
2023-03-28T13:39:08.426Z,11.67
2023-03-28T13:41:41.649Z,12.07
2023-03-28T13:44:17.348Z,12.60
2023-03-28T13:46:47.434Z,12.00
2023-03-28T13:49:18.932Z,11.37
2023-03-28T13:51:52.235Z,11.70
2023-03-28T13:54:19.523Z,12.10
2023-03-28T13:56:48.406Z,11.57
2023-03-28T13:59:31.383Z,11.73
2023-03-28T14:02:00.101Z,11.80
2023-03-28T14:04:29.755Z,12.00
2023-03-28T14:06:56.852Z,12.20
2023-03-28T14:09:32.346Z,11.43
2023-03-28T14:12:06.320Z,11.73
2023-03-28T14:14:32.944Z,12.00
2023-03-28T14:17:06.871Z,12.30
2023-03-28T14:19:57.047Z,11.47
2023-03-28T14:22:29.642Z,11.60
2023-03-28T14:25:15.849Z,11.67
2023-03-28T14:27:51.307Z,11.63
2023-03-28T14:30:20.341Z,11.70
2023-03-28T14:32:58.931Z,12.30
2023-03-28T14:35:31.558Z,11.67
2023-03-28T14:38:01.053Z,11.40
2023-03-28T14:40:36.866Z,11.73
2023-03-28T14:43:06.101Z,11.23
2023-03-28T14:45:38.496Z,12.23
2023-03-28T14:48:08.486Z,11.97
2023-03-28T14:50:39.552Z,12.30
2023-03-28T14:53:17.536Z,11.47
2023-03-28T14:55:44.388Z,12.43
2023-03-28T14:58:13.713Z,12.03
2023-03-28T15:00:46.890Z,12.27
2023-03-28T15:03:24.005Z,12.00
2023-03-28T15:05:52.787Z,11.87
2023-03-28T15:08:37.828Z,12.20
2023-03-28T15:11:05.384Z,12.23
2023-03-28T15:13:58.139Z,12.40
2023-03-28T15:16:26.076Z,11.30
2023-03-28T15:18:55.921Z,11.97
2023-03-28T15:21:23.800Z,12.23
2023-03-28T15:23:56.220Z,12.07
2023-03-28T15:26:29.942Z,12.03
2023-03-28T15:28:57.980Z,11.40
2023-03-28T15:31:26.152Z,11.47
2023-03-28T15:33:54.083Z,12.03
2023-03-28T15:36:28.847Z,11.67
2023-03-28T15:39:29.676Z,11.73
2023-03-28T15:42:00.885Z,12.17
2023-03-28T15:44:29.314Z,12.33
2023-03-28T15:47:21.355Z,12.00
2023-03-28T15:49:50.694Z,12.00
2023-03-28T15:52:22.872Z,11.60
2023-03-28T15:54:53.972Z,11.70
2023-03-28T15:57:22.650Z,11.80
2023-03-28T15:59:52.462Z,12.00
2023-03-28T16:02:23.468Z,12.20
2023-03-28T16:05:14.148Z,13.00
2023-03-28T16:07:43.751Z,12.93
2023-03-28T16:10:11.488Z,12.40
2023-03-28T16:12:38.503Z,12.10
2023-03-28T16:15:06.237Z,12.70
2023-03-28T16:17:33.601Z,12.67
2023-03-28T16:20:00.692Z,12.97
2023-03-28T16:22:27.378Z,12.50
2023-03-28T16:24:54.788Z,11.57
2023-03-28T16:27:22.084Z,11.93
2023-03-28T16:29:48.836Z,12.10
2023-03-28T16:32:16.474Z,12.53
2023-03-28T16:34:43.934Z,12.07
2023-03-28T16:37:11.446Z,12.10
2023-03-28T16:39:39.065Z,11.73
2023-03-28T16:42:06.550Z,11.57
2023-03-28T16:44:33.571Z,11.50
2023-03-28T16:47:00.758Z,11.57
2023-03-28T16:49:27.617Z,11.77
2023-03-28T16:51:55.628Z,11.63
2023-03-28T16:54:23.690Z,11.50
2023-03-28T16:56:50.545Z,10.90
2023-03-28T16:59:17.355Z,11.67
2023-03-28T17:01:46.336Z,12.10
2023-03-28T17:04:13.200Z,11.93
2023-03-28T17:06:39.933Z,12.27
2023-03-28T17:09:06.784Z,12.23
2023-03-28T17:11:34.026Z,11.87
2023-03-28T17:14:00.674Z,11.50
2023-03-28T17:16:27.638Z,11.70
2023-03-28T17:18:55.232Z,12.20
2023-03-28T17:21:22.141Z,12.10
2023-03-28T17:23:50.692Z,12.10
2023-03-28T17:26:17.735Z,11.70
2023-03-28T17:28:44.931Z,11.70
2023-03-28T17:31:17.583Z,11.60
2023-03-28T17:33:45.803Z,11.77
2023-03-28T17:36:24.840Z,11.50
2023-03-28T17:38:54.100Z,11.80
2023-03-28T17:41:23.053Z,12.23
2023-03-28T17:43:50.652Z,12.00
2023-03-28T17:46:17.411Z,11.80
2023-03-28T17:48:44.544Z,12.10
2023-03-28T17:51:12.440Z,11.77
2023-03-28T17:53:40.989Z,11.80
2023-03-28T17:56:08.713Z,11.83
2023-03-28T17:58:36.441Z,12.07
2023-03-28T18:01:04.203Z,11.50
2023-03-28T18:03:31.041Z,12.00
2023-03-28T18:06:00.189Z,11.90
2023-03-28T18:08:28.113Z,11.77
2023-03-28T18:10:59.815Z,12.60
2023-03-28T18:13:26.580Z,12.33
2023-03-28T18:15:53.615Z,12.10
2023-03-28T18:18:20.321Z,12.10
2023-03-28T18:20:47.169Z,12.43
2023-03-28T18:23:14.102Z,12.23
2023-03-28T18:25:41.522Z,12.37
2023-03-28T18:28:08.189Z,11.83
2023-03-28T18:30:35.297Z,11.80
2023-03-28T18:33:02.017Z,11.80
2023-03-28T18:35:28.937Z,11.97
2023-03-28T18:37:57.492Z,12.00
2023-03-28T18:40:24.524Z,12.40
2023-03-28T18:42:51.324Z,12.70
2023-03-28T18:45:18.003Z,12.70
2023-03-28T18:47:44.848Z,12.50
2023-03-28T18:50:11.616Z,13.20
2023-03-28T18:52:38.811Z,12.10
2023-03-28T18:55:06.163Z,12.10
2023-03-28T18:57:32.954Z,12.43
2023-03-28T18:59:59.603Z,12.50
2023-03-28T19:02:28.561Z,12.20
2023-03-28T19:04:55.375Z,12.23
2023-03-28T19:07:22.540Z,11.97
2023-03-28T19:09:49.335Z,12.50
2023-03-28T19:12:16.552Z,12.40
2023-03-28T19:14:43.195Z,12.53
2023-03-28T19:17:10.949Z,12.80
2023-03-28T19:19:38.252Z,13.13
2023-03-28T19:22:06.463Z,12.70
2023-03-28T19:24:33.836Z,12.53
2023-03-28T19:27:03.207Z,12.30
2023-03-28T19:29:32.300Z,12.33
2023-03-28T19:31:59.567Z,12.27
2023-03-28T19:34:28.009Z,12.40
2023-03-28T19:36:54.895Z,12.50
2023-03-28T19:39:21.714Z,12.50
2023-03-28T19:41:48.563Z,12.57
2023-03-28T19:44:15.613Z,12.40
2023-03-28T19:46:42.348Z,12.33
2023-03-28T19:49:10.354Z,12.47
2023-03-28T19:51:37.145Z,12.13
2023-03-28T19:54:04.605Z,12.13
2023-03-28T19:56:31.775Z,12.20
2023-03-28T19:58:58.546Z,12.33
2023-03-28T20:01:25.334Z,11.63
2023-03-28T20:03:54.746Z,11.10
2023-03-28T20:06:22.504Z,11.90
2023-03-28T20:08:50.599Z,12.07
2023-03-28T20:11:17.529Z,12.00
2023-03-28T20:13:44.233Z,12.17
2023-03-28T20:16:12.055Z,12.00
2023-03-28T20:18:38.886Z,12.23
2023-03-28T20:21:11.423Z,12.23
2023-03-28T20:23:38.225Z,12.10
2023-03-28T20:26:14.242Z,12.20
2023-03-28T20:28:41.641Z,12.07
2023-03-28T20:31:14.832Z,12.47
2023-03-28T20:33:41.974Z,11.97
2023-03-28T20:36:08.917Z,12.40
2023-03-28T20:38:35.992Z,11.90
2023-03-28T20:41:02.922Z,12.03
2023-03-28T20:43:30.159Z,12.00
2023-03-28T20:46:01.472Z,11.87
2023-03-28T20:48:36.335Z,11.93
2023-03-28T20:51:13.939Z,12.20
2023-03-28T20:53:46.170Z,12.57
2023-03-28T20:56:13.685Z,12.60
2023-03-28T20:58:40.800Z,12.60
2023-03-28T21:01:09.620Z,12.00
2023-03-28T21:03:46.464Z,12.10
2023-03-28T21:06:15.572Z,11.60
2023-03-28T21:08:47.201Z,11.80
2023-03-28T21:11:19.258Z,12.00
2023-03-28T21:13:46.047Z,11.80
2023-03-28T21:16:16.780Z,11.77
2023-03-28T21:18:44.467Z,11.27
2023-03-28T21:21:13.408Z,11.50
2023-03-28T21:23:40.768Z,11.30
2023-03-28T21:26:09.698Z,11.23
2023-03-28T21:28:37.008Z,11.60
2023-03-28T21:31:13.235Z,10.70
2023-03-28T21:33:42.509Z,10.50
2023-03-28T21:36:11.703Z,10.80
2023-03-28T21:38:39.747Z,10.40
2023-03-28T21:41:07.582Z,10.60
2023-03-28T21:43:35.176Z,10.60
2023-03-28T21:46:03.263Z,10.10
2023-03-28T21:48:30.485Z,10.10
2023-03-28T21:50:59.824Z,9.97
2023-03-28T21:53:32.677Z,10.13
2023-03-28T21:55:59.841Z,10.00
2023-03-28T21:58:29.000Z,9.30
2023-03-28T22:00:56.177Z,9.07
2023-03-28T22:03:23.466Z,8.57
2023-03-28T22:05:52.043Z,9.57
2023-03-28T22:08:19.168Z,9.07
2023-03-28T22:10:55.550Z,8.70
2023-03-28T22:13:23.879Z,8.80
2023-03-28T22:15:52.426Z,9.00
2023-03-28T22:18:19.769Z,9.00
2023-03-28T22:20:53.248Z,9.03
2023-03-28T22:23:22.539Z,9.53
2023-03-28T22:25:49.795Z,9.50
2023-03-28T22:28:17.228Z,9.73
2023-03-28T22:30:43.960Z,9.03
2023-03-28T22:33:11.228Z,9.30
2023-03-28T22:35:38.365Z,8.93
2023-03-28T22:38:05.800Z,8.50
2023-03-28T22:40:32.850Z,9.13
2023-03-28T22:42:59.916Z,9.17
2023-03-28T22:45:26.847Z,8.20
2023-03-28T22:47:54.676Z,8.77
2023-03-28T22:50:22.810Z,8.50
2023-03-28T22:52:52.961Z,8.80
2023-03-28T22:55:22.863Z,7.93
2023-03-28T22:57:51.612Z,8.80
2023-03-28T23:00:22.850Z,8.70
2023-03-28T23:02:51.716Z,8.40
2023-03-28T23:05:19.316Z,8.30
2023-03-28T23:07:46.131Z,8.40
2023-03-28T23:10:15.960Z,8.70
2023-03-28T23:12:43.407Z,8.70
2023-03-28T23:15:10.922Z,8.93
2023-03-28T23:17:38.267Z,9.00
2023-03-28T23:20:13.002Z,9.20
2023-03-28T23:22:41.104Z,8.47
2023-03-28T23:25:08.696Z,8.57
2023-03-28T23:27:35.664Z,8.70
2023-03-28T23:30:02.445Z,8.30
2023-03-28T23:32:29.212Z,8.50
2023-03-28T23:34:56.729Z,8.53
2023-03-28T23:37:27.237Z,8.80
2023-03-28T23:39:55.391Z,8.90
2023-03-28T23:42:23.242Z,8.30
2023-03-28T23:44:50.303Z,8.27
2023-03-28T23:47:18.076Z,8.23
2023-03-28T23:49:44.704Z,8.30
2023-03-28T23:52:12.684Z,8.10
2023-03-28T23:54:40.028Z,7.63
2023-03-28T23:57:07.704Z,7.87
2023-03-28T23:59:34.770Z,7.47
